Time;durP1;ratioP1;P1;durP2;ratioP2;P2;SDS_P1;SDS_P2;PMS_P1;PMS_P2;Temp;Humidity;BMP_temperature;BMP_pressure;BME280_temperature;BME280_humidity;BME280_pressure;Samples;Min_cycle;Max_cycle;Signal;HPM_P1;HPM_P2
2023/03/09 00:03:04;;;;;;;3.50;2.77;;;;;;;;;;10315297;28;20055;-75
2023/03/09 00:08:04;;;;;;;4.63;3.60;;;;;;;;;;10311146;28;20301;-75
2023/03/09 00:13:06;;;;;;;4.80;3.80;;;;;;;;;;10299689;28;20081;-75
2023/03/09 00:18:06;;;;;;;7.78;4.07;;;;;;;;;;10299322;28;20062;-76
2023/03/09 00:23:08;;;;;;;5.35;4.22;;;;;;;;;;10347690;28;20046;-77
2023/03/09 00:28:09;;;;;;;5.93;4.30;;;;;;;;;;10368015;28;20054;-78
2023/03/09 00:33:09;;;;;;;6.53;4.43;;;;;;;;;;10357860;28;20065;-74
2023/03/09 00:38:12;;;;;;;5.70;4.33;;;;;;;;;;10317353;28;20054;-74
2023/03/09 00:43:15;;;;;;;5.60;3.78;;;;;;;;;;10299898;28;20030;-74
2023/03/09 00:48:15;;;;;;;5.93;4.43;;;;;;;;;;10312938;28;20046;-74
2023/03/09 00:53:15;;;;;;;6.22;3.85;;;;;;;;;;10312717;28;20162;-74
2023/03/09 00:58:16;;;;;;;6.53;4.32;;;;;;;;;;10282383;28;20051;-74
2023/03/09 01:03:18;;;;;;;7.25;5.05;;;;;;;;;;10308512;28;20133;-75
2023/03/09 01:08:18;;;;;;;6.43;4.85;;;;;;;;;;10311396;28;20713;-75
2023/03/09 01:13:19;;;;;;;5.65;4.10;;;;;;;;;;10292282;28;20498;-73
2023/03/09 01:18:19;;;;;;;6.50;3.97;;;;;;;;;;10311271;28;20089;-74
2023/03/09 01:23:23;;;;;;;7.20;4.10;;;;;;;;;;10291455;28;20351;-74
2023/03/09 01:28:23;;;;;;;8.47;3.97;;;;;;;;;;10273895;28;20050;-75
2023/03/09 01:33:25;;;;;;;5.30;3.40;;;;;;;;;;10292269;28;20402;-72
2023/03/09 01:38:26;;;;;;;4.63;3.08;;;;;;;;;;10290420;28;20062;-75
2023/03/09 01:43:34;;;;;;;3.97;3.05;;;;;;;;;;10297197;28;20128;-75
2023/03/09 01:48:35;;;;;;;5.25;3.10;;;;;;;;;;10310593;28;20160;-76
2023/03/09 01:53:35;;;;;;;4.75;3.72;;;;;;;;;;10272914;28;20795;-78
2023/03/09 01:58:36;;;;;;;3.83;3.15;;;;;;;;;;10294945;28;20454;-76
2023/03/09 02:03:38;;;;;;;5.15;2.85;;;;;;;;;;10293861;28;20046;-76
2023/03/09 02:08:58;;;;;;;2.58;2.10;;;;;;;;;;10288000;28;20073;-76
2023/03/09 02:13:59;;;;;;;1.70;1.33;;;;;;;;;;10289744;28;20069;-75
2023/03/09 02:19:00;;;;;;;1.15;0.90;;;;;;;;;;10290992;28;20062;-75
2023/03/09 02:24:17;;;;;;;0.80;0.70;;;;;;;;;;10309477;28;20038;-75
2023/03/09 02:29:18;;;;;;;1.73;0.70;;;;;;;;;;10285968;28;20051;-75
2023/03/09 02:34:20;;;;;;;0.80;0.50;;;;;;;;;;10309319;28;20054;-74
2023/03/09 02:39:26;;;;;;;1.00;0.60;;;;;;;;;;10290615;28;20062;-74
2023/03/09 02:44:27;;;;;;;1.80;0.80;;;;;;;;;;10286141;28;20053;-74
2023/03/09 02:49:32;;;;;;;0.90;0.63;;;;;;;;;;10290985;28;20069;-75
2023/03/09 02:54:35;;;;;;;1.73;0.60;;;;;;;;;;10295546;28;20085;-74
2023/03/09 02:59:35;;;;;;;0.80;0.70;;;;;;;;;;10303242;28;20077;-75
2023/03/09 03:04:37;;;;;;;0.93;0.82;;;;;;;;;;10290820;28;20046;-75
2023/03/09 03:09:39;;;;;;;0.98;0.80;;;;;;;;;;10313858;28;20133;-73
2023/03/09 03:14:40;;;;;;;0.95;0.70;;;;;;;;;;10310344;28;20503;-73
2023/03/09 03:19:42;;;;;;;1.52;1.20;;;;;;;;;;10291451;28;20061;-74
2023/03/09 03:24:42;;;;;;;1.13;1.00;;;;;;;;;;10273459;28;20042;-75
2023/03/09 03:29:43;;;;;;;2.60;1.10;;;;;;;;;;10294453;28;20054;-73
2023/03/09 03:34:44;;;;;;;1.92;1.23;;;;;;;;;;10304462;28;20053;-75
2023/03/09 03:39:47;;;;;;;2.25;1.10;;;;;;;;;;10317020;28;20053;-71
2023/03/09 03:44:48;;;;;;;1.98;1.25;;;;;;;;;;10312457;28;20835;-75
2023/03/09 03:49:51;;;;;;;2.00;1.20;;;;;;;;;;10309948;28;20498;-73
2023/03/09 03:54:52;;;;;;;1.88;1.30;;;;;;;;;;10298618;28;20050;-75
2023/03/09 03:59:53;;;;;;;1.55;1.30;;;;;;;;;;10294677;28;20118;-75
2023/03/09 04:04:53;;;;;;;1.60;1.10;;;;;;;;;;10294204;28;20069;-75
2023/03/09 04:09:54;;;;;;;1.80;1.25;;;;;;;;;;10292608;28;20062;-74
2023/03/09 04:14:55;;;;;;;3.25;1.20;;;;;;;;;;10292402;28;20082;-75
2023/03/09 04:19:55;;;;;;;1.92;1.40;;;;;;;;;;10308454;28;20859;-75
2023/03/09 04:24:56;;;;;;;2.45;1.42;;;;;;;;;;10294599;28;20125;-75
2023/03/09 04:29:57;;;;;;;4.20;1.20;;;;;;;;;;10292721;28;21058;-75
2023/03/09 04:35:00;;;;;;;1.15;0.95;;;;;;;;;;10292351;28;20054;-75
2023/03/09 04:40:01;;;;;;;1.20;1.00;;;;;;;;;;10293733;28;21219;-74
2023/03/09 04:45:04;;;;;;;1.30;1.20;;;;;;;;;;10311551;28;20057;-74
2023/03/09 04:50:05;;;;;;;2.58;1.00;;;;;;;;;;10293761;28;20133;-74
2023/03/09 04:55:10;;;;;;;0.73;0.73;;;;;;;;;;10295225;28;20098;-74
2023/03/09 05:00:11;;;;;;;1.77;0.70;;;;;;;;;;10295356;28;20054;-78
2023/03/09 05:05:12;;;;;;;1.33;0.68;;;;;;;;;;10290550;28;20054;-74
2023/03/09 05:10:13;;;;;;;1.25;0.80;;;;;;;;;;10295691;28;20105;-74
2023/03/09 05:15:17;;;;;;;1.60;0.65;;;;;;;;;;10294631;28;20101;-73
2023/03/09 05:20:18;;;;;;;1.17;0.65;;;;;;;;;;10291562;28;20068;-74
2023/03/09 05:25:25;;;;;;;0.60;0.60;;;;;;;;;;10293640;28;20166;-74
2023/03/09 05:30:28;;;;;;;2.45;0.70;;;;;;;;;;10310743;28;20080;-74
2023/03/09 05:35:29;;;;;;;0.70;0.60;;;;;;;;;;10294582;28;21359;-74
2023/03/09 05:40:30;;;;;;;1.75;0.85;;;;;;;;;;10292824;28;20080;-74
2023/03/09 05:45:35;;;;;;;0.98;0.88;;;;;;;;;;10287581;28;20093;-78
2023/03/09 05:50:36;;;;;;;1.33;0.90;;;;;;;;;;10309323;28;20053;-79
2023/03/09 05:55:37;;;;;;;1.10;0.70;;;;;;;;;;10293808;28;20042;-76
2023/03/09 06:00:38;;;;;;;1.10;0.80;;;;;;;;;;10306920;28;20711;-79
2023/03/09 06:05:40;;;;;;;1.63;0.88;;;;;;;;;;10293985;28;20489;-74
2023/03/09 06:10:42;;;;;;;1.30;0.82;;;;;;;;;;10293640;28;20627;-79
2023/03/09 06:15:46;;;;;;;0.95;0.80;;;;;;;;;;10293655;28;20777;-74
2023/03/09 06:20:48;;;;;;;0.82;0.82;;;;;;;;;;10298564;28;20110;-75
2023/03/09 06:25:49;;;;;;;1.73;1.00;;;;;;;;;;10273094;28;20065;-73
2023/03/09 06:30:54;;;;;;;1.20;1.10;;;;;;;;;;10288265;28;20051;-75
2023/03/09 06:35:55;;;;;;;2.00;1.15;;;;;;;;;;10270516;28;20156;-75
2023/03/09 06:40:55;;;;;;;2.95;1.33;;;;;;;;;;10288991;28;20066;-79
2023/03/09 06:45:59;;;;;;;3.33;1.15;;;;;;;;;;10296600;28;20046;-74
2023/03/09 06:51:00;;;;;;;2.75;1.30;;;;;;;;;;10328438;28;20097;-73
2023/03/09 06:56:01;;;;;;;2.80;1.60;;;;;;;;;;10340415;28;20052;-72
2023/03/09 07:01:10;;;;;;;2.38;1.30;;;;;;;;;;10336428;28;20120;-71
2023/03/09 07:06:11;;;;;;;3.92;1.77;;;;;;;;;;10327367;28;20130;-74
2023/03/09 07:11:12;;;;;;;2.35;1.30;;;;;;;;;;10314787;28;20064;-72
2023/03/09 07:16:13;;;;;;;4.38;2.20;;;;;;;;;;10320532;28;20136;-75
2023/03/09 07:21:14;;;;;;;2.75;1.50;;;;;;;;;;10320302;28;20143;-74
2023/03/09 07:26:14;;;;;;;3.00;1.52;;;;;;;;;;10318250;28;20046;-75
2023/03/09 07:31:15;;;;;;;3.30;1.63;;;;;;;;;;10315402;28;20038;-75
2023/03/09 07:36:15;;;;;;;3.42;1.38;;;;;;;;;;10312702;28;20053;-73
2023/03/09 07:41:18;;;;;;;4.28;1.70;;;;;;;;;;10312127;28;20054;-76
2023/03/09 07:46:18;;;;;;;3.00;1.90;;;;;;;;;;10314674;28;20788;-75
2023/03/09 07:51:21;;;;;;;7.22;2.03;;;;;;;;;;10312286;28;20046;-78
2023/03/09 07:56:22;;;;;;;4.55;1.90;;;;;;;;;;10313179;28;20052;-73
2023/03/09 08:01:23;;;;;;;4.93;1.80;;;;;;;;;;10296766;28;20054;-75
2023/03/09 08:06:23;;;;;;;3.03;1.55;;;;;;;;;;10313737;28;20042;-74
2023/03/09 08:11:24;;;;;;;7.30;2.03;;;;;;;;;;10308822;28;20042;-73
2023/03/09 08:16:24;;;;;;;4.70;1.83;;;;;;;;;;10312255;28;20076;-73
2023/03/09 08:21:26;;;;;;;5.50;2.20;;;;;;;;;;10311668;28;20412;-75
2023/03/09 08:26:27;;;;;;;4.93;1.40;;;;;;;;;;10313399;28;20142;-75
2023/03/09 08:31:27;;;;;;;2.50;1.42;;;;;;;;;;10294102;28;20042;-76
2023/03/09 08:36:28;;;;;;;3.42;1.50;;;;;;;;;;10311432;28;20050;-73
2023/03/09 08:41:28;;;;;;;5.18;2.00;;;;;;;;;;10313587;28;20706;-74
2023/03/09 08:46:28;;;;;;;4.78;2.03;;;;;;;;;;10295742;28;20058;-73
2023/03/09 08:51:29;;;;;;;5.03;2.13;;;;;;;;;;10313139;28;20092;-73
2023/03/09 08:56:29;;;;;;;5.50;1.60;;;;;;;;;;10312122;28;20046;-75
2023/03/09 09:01:30;;;;;;;5.22;1.70;;;;;;;;;;10310234;28;20587;-76
2023/03/09 09:06:30;;;;;;;8.98;1.73;;;;;;;;;;10309676;28;20153;-73
2023/03/09 09:11:32;;;;;;;3.25;1.35;;;;;;;;;;10310995;28;20100;-75
2023/03/09 09:16:33;;;;;;;4.40;1.70;;;;;;;;;;10294575;28;20053;-75
2023/03/09 09:21:33;;;;;;;3.72;1.38;;;;;;;;;;10274788;28;20050;-74
2023/03/09 09:26:34;;;;;;;4.40;1.33;;;;;;;;;;10309367;28;20050;-77
2023/03/09 09:31:34;;;;;;;2.85;1.15;;;;;;;;;;10311640;28;20157;-77
2023/03/09 09:36:39;;;;;;;2.13;1.20;;;;;;;;;;10293137;28;20049;-79
2023/03/09 09:41:53;;;;;;;3.28;1.30;;;;;;;;;;10310987;28;20096;-76
2023/03/09 09:46:55;;;;;;;4.57;1.00;;;;;;;;;;10313026;28;20050;-74
2023/03/09 09:52:08;;;;;;;2.42;0.95;;;;;;;;;;10305398;28;20056;-75
2023/03/09 09:57:17;;;;;;;3.40;1.00;;;;;;;;;;10302077;28;20054;-75
2023/03/09 10:02:38;;;;;;;2.25;1.05;;;;;;;;;;10345370;28;20062;-79
2023/03/09 10:07:39;;;;;;;2.20;1.00;;;;;;;;;;10331496;28;20033;-79
2023/03/09 10:12:40;;;;;;;2.58;0.90;;;;;;;;;;10295864;28;20044;-75
2023/03/09 10:17:48;;;;;;;3.15;1.23;;;;;;;;;;10312989;28;20054;-75
2023/03/09 10:22:50;;;;;;;2.47;1.42;;;;;;;;;;10311587;28;20042;-75
2023/03/09 10:28:01;;;;;;;3.35;1.10;;;;;;;;;;10308439;28;20272;-77
2023/03/09 10:33:13;;;;;;;2.42;1.08;;;;;;;;;;10309078;28;20144;-75
2023/03/09 10:38:18;;;;;;;3.15;1.30;;;;;;;;;;10285489;28;20057;-76
2023/03/09 10:43:24;;;;;;;2.38;1.10;;;;;;;;;;10285245;28;20050;-75
2023/03/09 10:48:27;;;;;;;3.15;1.17;;;;;;;;;;10292838;28;20053;-75
2023/03/09 10:53:43;;;;;;;2.63;1.10;;;;;;;;;;10282924;28;20070;-74
2023/03/09 10:58:44;;;;;;;5.82;1.33;;;;;;;;;;10306272;28;20097;-74
2023/03/09 11:03:44;;;;;;;4.22;1.25;;;;;;;;;;10303463;28;20517;-76
2023/03/09 11:08:53;;;;;;;2.50;1.20;;;;;;;;;;10286704;28;20050;-77
2023/03/09 11:13:54;;;;;;;3.65;1.35;;;;;;;;;;10291558;28;21134;-74
2023/03/09 11:19:12;;;;;;;3.13;1.30;;;;;;;;;;10301120;28;20070;-75
2023/03/09 11:24:13;;;;;;;4.32;1.20;;;;;;;;;;10286467;28;20100;-75
2023/03/09 11:29:16;;;;;;;6.78;1.33;;;;;;;;;;10306094;28;20048;-79
2023/03/09 11:34:23;;;;;;;3.90;1.30;;;;;;;;;;10304548;28;20054;-76
2023/03/09 11:39:50;;;;;;;4.40;1.65;;;;;;;;;;10304250;28;20494;-77
2023/03/09 11:44:50;;;;;;;3.80;1.30;;;;;;;;;;10291164;28;20046;-75
2023/03/09 11:49:53;;;;;;;5.13;1.90;;;;;;;;;;10312242;28;20474;-73
2023/03/09 11:54:54;;;;;;;;;;;;;;;;;;10314507;28;20046;-73
2023/03/09 12:00:05;;;;;;;4.78;1.42;;;;;;;;;;10328593;28;20612;-73
2023/03/09 12:05:14;;;;;;;5.03;1.58;;;;;;;;;;10295525;28;20112;-74
2023/03/09 12:10:41;;;;;;;6.45;1.40;;;;;;;;;;10294987;28;20050;-75
2023/03/09 12:15:47;;;;;;;4.82;1.30;;;;;;;;;;10308209;28;20572;-81
2023/03/09 12:20:55;;;;;;;3.13;1.08;;;;;;;;;;10310435;28;20396;-75
2023/03/09 12:25:56;;;;;;;2.55;1.05;;;;;;;;;;10305882;28;20042;-75
2023/03/09 12:30:57;;;;;;;4.10;1.15;;;;;;;;;;10314281;28;20595;-75
2023/03/09 12:35:58;;;;;;;3.90;1.08;;;;;;;;;;10316425;28;20050;-76
2023/03/09 12:40:59;;;;;;;2.80;1.20;;;;;;;;;;10298408;28;20141;-75
2023/03/09 12:46:19;;;;;;;2.28;1.27;;;;;;;;;;10312211;28;20060;-76
2023/03/09 12:51:27;;;;;;;1.85;0.95;;;;;;;;;;10294309;28;20054;-74
2023/03/09 12:56:28;;;;;;;1.77;0.70;;;;;;;;;;10312707;28;20054;-74
2023/03/09 13:01:31;;;;;;;2.15;0.93;;;;;;;;;;10321676;28;20054;-76
2023/03/09 13:06:39;;;;;;;2.65;1.00;;;;;;;;;;10357786;28;20129;-79
2023/03/09 13:11:45;;;;;;;2.45;0.90;;;;;;;;;;10372751;28;20049;-80
2023/03/09 13:16:50;;;;;;;2.80;1.00;;;;;;;;;;10349559;28;20062;-75
2023/03/09 13:21:56;;;;;;;7.75;4.40;;;;;;;;;;10307607;28;20558;-77
2023/03/09 13:27:17;;;;;;;2.10;0.90;;;;;;;;;;10317454;28;20129;-77
2023/03/09 13:32:21;;;;;;;4.35;1.38;;;;;;;;;;10322248;28;20077;-75
2023/03/09 13:37:25;;;;;;;7.50;1.42;;;;;;;;;;10299067;28;20503;-75
2023/03/09 13:42:26;;;;;;;2.20;0.97;;;;;;;;;;10323021;28;20050;-79
2023/03/09 13:47:29;;;;;;;2.35;1.02;;;;;;;;;;10320144;28;20050;-77
2023/03/09 13:52:30;;;;;;;3.97;1.00;;;;;;;;;;10314793;28;20046;-76
2023/03/09 13:57:32;;;;;;;4.38;1.00;;;;;;;;;;10300565;28;20687;-75
2023/03/09 14:02:33;;;;;;;3.60;1.30;;;;;;;;;;10309335;28;20038;-80
2023/03/09 14:07:41;;;;;;;1.77;1.00;;;;;;;;;;10288515;28;20093;-76
2023/03/09 14:12:42;;;;;;;4.07;1.00;;;;;;;;;;10293947;28;20069;-79
2023/03/09 14:17:43;;;;;;;3.30;1.23;;;;;;;;;;10314419;28;20505;-77
2023/03/09 14:22:44;;;;;;;4.30;1.08;;;;;;;;;;10296365;28;20046;-75
2023/03/09 14:27:44;;;;;;;2.17;1.05;;;;;;;;;;10281957;28;20051;-75
2023/03/09 14:33:06;;;;;;;3.17;0.90;;;;;;;;;;10291133;28;20137;-76
2023/03/09 14:38:15;;;;;;;2.55;1.00;;;;;;;;;;10292476;28;20117;-77
2023/03/09 14:43:39;;;;;;;3.53;1.63;;;;;;;;;;10289882;28;20073;-75
2023/03/09 14:48:40;;;;;;;;;;;;;;;;;;10285132;28;20486;-76
2023/03/09 14:53:54;;;;;;;1.97;1.13;;;;;;;;;;10309063;28;19962;-75
2023/03/09 14:59:00;;;;;;;2.00;1.00;;;;;;;;;;10291998;28;20310;-79
2023/03/09 15:04:00;;;;;;;1.95;0.88;;;;;;;;;;10301971;28;20042;-76
2023/03/09 15:09:00;;;;;;;1.88;0.90;;;;;;;;;;10308125;28;20716;-75
2023/03/09 15:14:05;;;;;;;5.13;1.10;;;;;;;;;;10311950;28;20055;-76
2023/03/09 15:19:05;;;;;;;2.03;0.70;;;;;;;;;;10317596;28;20086;-77
2023/03/09 15:24:08;;;;;;;2.10;1.10;;;;;;;;;;10317287;28;20060;-77
2023/03/09 15:29:09;;;;;;;1.65;0.80;;;;;;;;;;10300527;28;20043;-78
2023/03/09 15:34:09;;;;;;;2.53;1.00;;;;;;;;;;10315114;28;20509;-76
2023/03/09 15:39:10;;;;;;;1.75;0.85;;;;;;;;;;10300019;28;20780;-77
2023/03/09 15:44:11;;;;;;;1.42;0.88;;;;;;;;;;10301740;28;20066;-76
2023/03/09 15:49:13;;;;;;;3.13;0.98;;;;;;;;;;10316536;28;20092;-78
2023/03/09 15:54:15;;;;;;;2.25;0.82;;;;;;;;;;10318899;28;20042;-77
2023/03/09 15:59:15;;;;;;;3.58;0.82;;;;;;;;;;10298915;28;20133;-75
2023/03/09 16:04:15;;;;;;;1.17;0.70;;;;;;;;;;10316627;28;20095;-77
2023/03/09 16:09:16;;;;;;;2.45;1.00;;;;;;;;;;10329581;28;20313;-75
2023/03/09 16:14:16;;;;;;;3.13;1.20;;;;;;;;;;10314996;28;20042;-80
2023/03/09 16:19:17;;;;;;;2.03;0.82;;;;;;;;;;10362630;28;20336;-80
2023/03/09 16:24:19;;;;;;;2.67;0.90;;;;;;;;;;10377176;28;20043;-79
2023/03/09 16:29:23;;;;;;;2.93;1.07;;;;;;;;;;10374845;28;20026;-78
2023/03/09 16:34:24;;;;;;;2.70;1.00;;;;;;;;;;10323459;28;20435;-78
2023/03/09 16:39:26;;;;;;;2.45;0.90;;;;;;;;;;10324315;28;20193;-81
2023/03/09 16:44:27;;;;;;;3.50;1.00;;;;;;;;;;10322573;28;20113;-81
2023/03/09 16:49:27;;;;;;;1.67;0.80;;;;;;;;;;10293606;28;20050;-78
2023/03/09 16:54:29;;;;;;;2.33;1.15;;;;;;;;;;10288361;28;20073;-81
2023/03/09 16:59:42;;;;;;;4.07;1.33;;;;;;;;;;10280346;28;20514;-78
2023/03/09 17:04:43;;;;;;;;;;;;;;;;;;10274715;28;20050;-77
2023/03/09 17:09:43;;;;;;;3.90;1.10;;;;;;;;;;10274771;28;19918;-79
2023/03/09 17:14:44;;;;;;;2.78;1.60;;;;;;;;;;10271019;28;20073;-79
2023/03/09 17:19:44;;;;;;;4.43;1.73;;;;;;;;;;10258054;28;20062;-77
2023/03/09 17:24:46;;;;;;;4.50;1.20;;;;;;;;;;10273433;28;20047;-78
2023/03/09 17:29:48;;;;;;;;;;;;;;;;;;10276171;28;20050;-77
2023/03/09 17:34:48;;;;;;;4.57;1.45;;;;;;;;;;10272560;28;19922;-77
2023/03/09 17:39:50;;;;;;;27.13;14.73;;;;;;;;;;10274820;28;20062;-79
2023/03/09 17:44:50;;;;;;;4.55;1.80;;;;;;;;;;10264647;28;20053;-79
2023/03/09 17:49:51;;;;;;;4.57;1.83;;;;;;;;;;10266035;28;20073;-78
2023/03/09 17:54:52;;;;;;;4.23;1.73;;;;;;;;;;10265641;28;20050;-77
2023/03/09 17:59:57;;;;;;;6.00;1.75;;;;;;;;;;10264960;28;20310;-77
2023/03/09 18:04:58;;;;;;;4.00;1.90;;;;;;;;;;10265466;28;20096;-78
2023/03/09 18:09:59;;;;;;;5.65;1.95;;;;;;;;;;10274111;28;20128;-77
2023/03/09 18:14:59;;;;;;;10.15;2.30;;;;;;;;;;10254063;28;20084;-77
2023/03/09 18:20:02;;;;;;;3.35;1.38;;;;;;;;;;10281073;28;20059;-78
2023/03/09 18:25:04;;;;;;;5.25;2.20;;;;;;;;;;10277995;28;20054;-77
2023/03/09 18:30:07;;;;;;;4.82;2.20;;;;;;;;;;10271193;28;20085;-77
2023/03/09 18:35:07;;;;;;;;;;;;;;;;;;10263857;28;20458;-74
2023/03/09 18:40:09;;;;;;;7.35;2.67;;;;;;;;;;10268103;28;19926;-76
2023/03/09 18:45:12;;;;;;;7.85;2.60;;;;;;;;;;10266912;28;20051;-77
2023/03/09 18:50:15;;;;;;;3.78;2.90;;;;;;;;;;10275333;28;20054;-78
2023/03/09 18:55:17;;;;;;;4.20;2.72;;;;;;;;;;10277749;28;20136;-77
2023/03/09 19:00:18;;;;;;;8.77;4.20;;;;;;;;;;10277006;28;20423;-78
2023/03/09 19:05:18;;;;;;;5.75;3.72;;;;;;;;;;10278585;28;20046;-79
2023/03/09 19:10:19;;;;;;;4.82;3.35;;;;;;;;;;10283382;28;20047;-82
2023/03/09 19:15:21;;;;;;;5.22;3.42;;;;;;;;;;10314423;28;20098;-78
2023/03/09 19:20:21;;;;;;;5.03;3.35;;;;;;;;;;10303188;28;20070;-78
2023/03/09 19:25:22;;;;;;;8.23;3.75;;;;;;;;;;10321312;28;20122;-80
2023/03/09 19:30:22;;;;;;;6.88;4.60;;;;;;;;;;10290922;28;20042;-80
2023/03/09 19:35:23;;;;;;;5.93;3.67;;;;;;;;;;10311230;28;20042;-77
2023/03/09 19:40:23;;;;;;;9.98;4.50;;;;;;;;;;10332725;28;20034;-79
2023/03/09 19:45:23;;;;;;;9.40;4.13;;;;;;;;;;10339460;28;20057;-78
2023/03/09 19:50:24;;;;;;;7.85;4.60;;;;;;;;;;10302433;28;20038;-80
2023/03/09 19:55:27;;;;;;;10.07;5.95;;;;;;;;;;10285502;28;20261;-78
2023/03/09 20:00:28;;;;;;;9.23;4.80;;;;;;;;;;10277330;28;20511;-79
2023/03/09 20:05:29;;;;;;;8.05;5.53;;;;;;;;;;10275913;28;20070;-75
2023/03/09 20:10:30;;;;;;;12.07;5.22;;;;;;;;;;10279966;28;20034;-79
2023/03/09 20:15:33;;;;;;;12.82;4.70;;;;;;;;;;10262299;28;20051;-78
2023/03/09 20:20:34;;;;;;;;;;;;;;;;;;10277973;28;20554;-77
2023/03/09 20:25:37;;;;;;;8.02;4.60;;;;;;;;;;10278226;28;19972;-76
2023/03/09 20:30:40;;;;;;;7.18;4.00;;;;;;;;;;10262170;28;20137;-77
2023/03/09 20:35:41;;;;;;;9.57;4.95;;;;;;;;;;10245500;28;20055;-79
2023/03/09 20:40:43;;;;;;;10.07;4.80;;;;;;;;;;10281706;28;20148;-79
2023/03/09 20:45:44;;;;;;;11.18;6.60;;;;;;;;;;10263314;28;20170;-78
2023/03/09 20:50:49;;;;;;;9.70;5.07;;;;;;;;;;10276051;28;20050;-80
2023/03/09 20:55:50;;;;;;;10.10;5.55;;;;;;;;;;10309921;28;20050;-79
2023/03/09 21:00:58;;;;;;;9.13;5.28;;;;;;;;;;10259521;28;20073;-79
2023/03/09 21:06:03;;;;;;;9.05;5.20;;;;;;;;;;10278122;28;20058;-77
2023/03/09 21:11:09;;;;;;;12.50;6.35;;;;;;;;;;10280272;28;20055;-77
2023/03/09 21:16:14;;;;;;;13.70;6.95;;;;;;;;;;10279226;28;20442;-76
2023/03/09 21:21:15;;;;;;;8.55;5.38;;;;;;;;;;10281001;28;20059;-75
2023/03/09 21:26:21;;;;;;;6.45;4.43;;;;;;;;;;10278421;28;20059;-76
2023/03/09 21:31:30;;;;;;;10.07;4.68;;;;;;;;;;10251935;28;20066;-75
2023/03/09 21:36:31;;;;;;;6.10;3.92;;;;;;;;;;10254228;28;20629;-77
2023/03/09 21:41:33;;;;;;;7.47;3.60;;;;;;;;;;10272664;28;20058;-76
2023/03/09 21:46:34;;;;;;;10.00;3.75;;;;;;;;;;10261946;28;20500;-76
2023/03/09 21:51:34;;;;;;;6.95;3.50;;;;;;;;;;10238821;28;20043;-76
2023/03/09 21:56:37;;;;;;;7.68;4.00;;;;;;;;;;10250142;28;20063;-76
2023/03/09 22:01:38;;;;;;;6.63;3.90;;;;;;;;;;10265750;28;20065;-82
2023/03/09 22:06:39;;;;;;;6.72;4.20;;;;;;;;;;10264969;28;20051;-79
2023/03/09 22:11:41;;;;;;;9.75;4.50;;;;;;;;;;10271965;28;20059;-78
2023/03/09 22:16:42;;;;;;;;;;;;;;;;;;10257771;28;20498;-77
2023/03/09 22:21:43;;;;;;;10.52;4.55;;;;;;;;;;10267108;28;19949;-79
2023/03/09 22:26:44;;;;;;;7.72;3.95;;;;;;;;;;10246845;28;20051;-79
2023/03/09 22:31:45;;;;;;;7.68;4.13;;;;;;;;;;10263741;28;20042;-76
2023/03/09 22:36:46;;;;;;;7.70;4.32;;;;;;;;;;10263550;28;20061;-80
2023/03/09 22:41:47;;;;;;;5.57;3.70;;;;;;;;;;10285844;28;20097;-78
2023/03/09 22:46:48;;;;;;;9.15;3.75;;;;;;;;;;10298351;28;20058;-78
2023/03/09 22:51:50;;;;;;;6.97;3.60;;;;;;;;;;10300688;28;20055;-78
2023/03/09 22:56:50;;;;;;;7.80;3.67;;;;;;;;;;10283076;28;20058;-76
2023/03/09 23:01:50;;;;;;;7.07;3.60;;;;;;;;;;10281857;28;20166;-77
2023/03/09 23:06:51;;;;;;;5.78;3.38;;;;;;;;;;10279120;28;20762;-77
2023/03/09 23:11:52;;;;;;;6.30;3.70;;;;;;;;;;10251982;28;20059;-78
2023/03/09 23:16:54;;;;;;;8.90;3.63;;;;;;;;;;10259619;28;20132;-80
2023/03/09 23:21:55;;;;;;;6.50;3.22;;;;;;;;;;10265787;28;20193;-75
2023/03/09 23:26:56;;;;;;;8.50;3.50;;;;;;;;;;10268861;28;20398;-75
2023/03/09 23:31:56;;;;;;;6.00;3.33;;;;;;;;;;10261331;28;20046;-77
2023/03/09 23:36:57;;;;;;;5.80;2.78;;;;;;;;;;10266911;28;20074;-76
2023/03/09 23:41:58;;;;;;;5.32;3.08;;;;;;;;;;10254240;28;20071;-75
2023/03/09 23:46:58;;;;;;;5.35;2.50;;;;;;;;;;10268460;28;20057;-75
2023/03/09 23:52:00;;;;;;;5.70;2.50;;;;;;;;;;10257196;28;20046;-75
2023/03/09 23:57:00;;;;;;;5.03;2.10;;;;;;;;;;10271760;28;20046;-75
